Time;durP1;ratioP1;P1;durP2;ratioP2;P2;SDS_P1;SDS_P2;PMS_P1;PMS_P2;Temp;Humidity;BMP_temperature;BMP_pressure;BME280_temperature;BME280_humidity;BME280_pressure;Samples;Min_cycle;Max_cycle;Signal;HPM_P1;HPM_P2
2021/06/01 00:01:32;;;;;;;7.85;5.35;;;13.00;99.90;;;;;;5058231;28;20429;-73
2021/06/01 00:03:58;;;;;;;8.20;5.28;;;12.90;99.90;;;;;;5058054;28;20067;-74
2021/06/01 00:06:24;;;;;;;8.15;5.13;;;12.90;99.90;;;;;;5062535;28;20079;-74
2021/06/01 00:08:50;;;;;;;8.77;5.28;;;12.90;99.90;;;;;;5061120;28;20028;-74
2021/06/01 00:11:16;;;;;;;8.82;5.30;;;12.80;99.90;;;;;;5067877;28;20024;-74
2021/06/01 00:13:42;;;;;;;11.02;5.47;;;12.80;99.90;;;;;;5056050;28;20052;-74
2021/06/01 00:16:09;;;;;;;7.95;4.97;;;12.80;99.90;;;;;;5071857;28;20467;-74
2021/06/01 00:18:35;;;;;;;8.80;5.22;;;12.70;99.90;;;;;;5062686;28;20111;-74
2021/06/01 00:21:01;;;;;;;9.50;5.45;;;12.80;99.90;;;;;;5059730;28;20119;-74
2021/06/01 00:23:27;;;;;;;11.93;5.65;;;12.80;99.90;;;;;;5059570;28;20027;-74
2021/06/01 00:25:52;;;;;;;8.65;5.50;;;12.70;99.90;;;;;;5058699;28;20425;-74
2021/06/01 00:28:18;;;;;;;7.55;4.97;;;12.70;99.90;;;;;;5057852;28;20032;-73
2021/06/01 00:30:43;;;;;;;9.35;5.13;;;12.60;99.90;;;;;;5064657;28;20020;-73
2021/06/01 00:33:10;;;;;;;10.65;5.30;;;12.60;99.90;;;;;;5062354;28;20175;-74
2021/06/01 00:35:36;;;;;;;11.38;5.78;;;12.60;99.90;;;;;;5057968;28;20035;-74
2021/06/01 00:38:03;;;;;;;10.07;5.80;;;12.70;99.90;;;;;;5057104;28;20025;-74
2021/06/01 00:40:29;;;;;;;7.47;5.00;;;12.60;99.90;;;;;;5071866;28;20036;-74
2021/06/01 00:42:55;;;;;;;10.60;5.53;;;12.70;99.90;;;;;;5062040;28;20509;-74
2021/06/01 00:45:22;;;;;;;10.82;5.13;;;12.70;99.90;;;;;;5057212;28;20070;-73
2021/06/01 00:47:48;;;;;;;10.77;5.65;;;12.60;99.90;;;;;;5057734;28;20028;-73
2021/06/01 00:50:14;;;;;;;9.90;5.60;;;12.60;99.90;;;;;;5055407;28;20033;-74
2021/06/01 00:52:40;;;;;;;10.05;5.82;;;12.50;99.90;;;;;;5059202;28;20029;-74
2021/06/01 00:55:07;;;;;;;11.77;6.32;;;12.60;99.90;;;;;;5055080;28;20028;-74
2021/06/01 00:57:33;;;;;;;9.50;5.47;;;12.50;99.90;;;;;;5051640;28;20035;-73
2021/06/01 00:59:59;;;;;;;9.85;5.88;;;12.50;99.90;;;;;;5064792;28;20029;-74
2021/06/01 01:02:25;;;;;;;9.13;5.85;;;12.40;99.90;;;;;;5065412;28;20031;-73
2021/06/01 01:04:51;;;;;;;10.30;6.22;;;12.40;99.90;;;;;;5064938;28;20027;-74
2021/06/01 01:07:33;;;;;;;12.55;6.07;;;12.30;99.90;;;;;;5063769;28;20037;-74
2021/06/01 01:09:59;;;;;;;14.18;6.10;;;12.40;99.90;;;;;;5060496;28;20041;-74
2021/06/01 01:12:37;;;;;;;10.60;5.93;;;12.40;99.90;;;;;;5065087;28;20055;-73
2021/06/01 01:15:05;;;;;;;9.98;6.13;;;12.40;99.90;;;;;;5066721;28;20040;-73
2021/06/01 01:17:55;;;;;;;10.88;6.70;;;12.30;99.90;;;;;;5061758;28;20037;-74
2021/06/01 01:20:33;;;;;;;10.90;6.00;;;12.30;99.90;;;;;;5066596;28;20032;-74
2021/06/01 01:23:06;;;;;;;9.45;6.00;;;12.30;99.90;;;;;;5064919;28;20067;-74
2021/06/01 01:25:52;;;;;;;10.63;6.60;;;12.30;99.90;;;;;;5068395;28;20577;-74
2021/06/01 01:28:42;;;;;;;9.73;5.55;;;12.30;99.90;;;;;;5055027;28;20075;-74
2021/06/01 01:31:14;;;;;;;8.88;6.03;;;12.30;99.90;;;;;;5068159;28;20028;-74
2021/06/01 01:33:40;;;;;;;;;;;12.30;99.90;;;;;;5061473;28;20050;-74
2021/06/01 01:36:09;;;;;;;8.93;5.55;;;12.30;99.90;;;;;;5076405;28;20285;-74
2021/06/01 01:38:37;;;;;;;11.27;6.47;;;12.20;99.90;;;;;;5066873;28;20553;-74
2021/06/01 01:41:11;;;;;;;8.85;5.82;;;12.20;99.90;;;;;;5065458;28;20027;-73
2021/06/01 01:43:41;;;;;;;10.80;6.15;;;12.20;99.90;;;;;;5059422;28;20020;-74
2021/06/01 01:46:12;;;;;;;9.83;6.30;;;12.20;99.90;;;;;;5065078;28;20036;-73
2021/06/01 01:51:35;;;;;;;9.55;6.15;;;12.10;99.90;;;;;;5065286;28;20036;-74
2021/06/01 01:54:06;;;;;;;9.15;6.18;;;12.10;99.90;;;;;;5060801;28;20097;-74
2021/06/01 01:56:36;;;;;;;9.32;5.55;;;12.10;99.90;;;;;;5065947;28;20033;-74
2021/06/01 01:59:03;;;;;;;9.02;5.95;;;12.00;99.90;;;;;;5057380;28;20079;-73
2021/06/01 02:01:34;;;;;;;8.73;5.65;;;12.00;99.90;;;;;;5067912;28;20111;-73
2021/06/01 02:03:59;;;;;;;10.55;6.20;;;12.00;99.90;;;;;;5064079;28;20040;-73
2021/06/01 02:06:25;;;;;;;10.63;6.13;;;11.90;99.90;;;;;;5062575;28;20044;-74
2021/06/01 02:08:51;;;;;;;11.73;6.03;;;11.80;99.90;;;;;;5063406;28;20055;-74
2021/06/01 02:11:16;;;;;;;6.97;5.00;;;11.80;99.90;;;;;;5063074;28;20028;-74
2021/06/01 02:13:45;;;;;;;10.68;5.90;;;11.90;99.90;;;;;;5064345;28;20081;-74
2021/06/01 02:16:11;;;;;;;9.43;6.18;;;11.90;99.90;;;;;;5063743;28;20024;-74
2021/06/01 02:18:36;;;;;;;11.23;6.57;;;11.90;99.90;;;;;;5065549;28;20118;-73
2021/06/01 02:21:18;;;;;;;9.50;6.03;;;11.90;99.90;;;;;;5067504;28;20033;-74
2021/06/01 02:23:48;;;;;;;8.90;5.75;;;11.90;99.90;;;;;;5066179;28;20020;-74
2021/06/01 02:26:22;;;;;;;9.40;5.88;;;11.90;99.90;;;;;;5062343;28;20569;-74
2021/06/01 02:28:53;;;;;;;14.27;6.10;;;11.90;99.90;;;;;;5067309;28;20435;-74
2021/06/01 02:31:24;;;;;;;9.68;5.40;;;11.90;99.90;;;;;;5063808;28;20039;-74
2021/06/01 02:33:50;;;;;;;;;;;11.90;99.90;;;;;;5074363;28;20032;-74
2021/06/01 02:36:17;;;;;;;11.00;5.45;;;11.80;99.90;;;;;;5064693;28;20427;-74
2021/06/01 02:38:43;;;;;;;13.55;6.35;;;11.80;99.90;;;;;;5067263;28;20043;-74
2021/06/01 02:41:10;;;;;;;8.90;6.13;;;11.80;99.90;;;;;;5058998;28;20021;-74
2021/06/01 02:43:36;;;;;;;10.27;5.70;;;11.80;99.90;;;;;;5063226;28;20060;-73
2021/06/01 02:46:02;;;;;;;12.10;5.50;;;11.80;99.90;;;;;;5067758;28;20056;-74
2021/06/01 02:48:28;;;;;;;9.60;6.15;;;11.80;99.90;;;;;;5060898;28;20029;-73
2021/06/01 02:50:57;;;;;;;9.93;6.50;;;11.70;99.90;;;;;;5064436;28;20021;-73
2021/06/01 02:53:24;;;;;;;12.73;5.80;;;11.70;99.90;;;;;;5055939;28;20059;-73
2021/06/01 02:55:51;;;;;;;10.98;6.20;;;11.70;99.90;;;;;;5070203;28;20033;-74
2021/06/01 02:58:18;;;;;;;9.15;5.45;;;11.70;99.90;;;;;;5061421;28;20032;-74
2021/06/01 03:00:45;;;;;;;11.57;6.32;;;11.70;99.90;;;;;;5051958;28;20027;-74
2021/06/01 03:03:13;;;;;;;9.63;6.18;;;11.60;99.90;;;;;;5057718;28;20024;-74
2021/06/01 03:05:40;;;;;;;10.45;6.25;;;11.60;99.90;;;;;;5072965;28;20838;-74
2021/06/01 03:08:15;;;;;;;9.82;5.65;;;11.70;99.90;;;;;;5075184;28;20028;-74
2021/06/01 03:10:40;;;;;;;9.73;5.90;;;11.60;99.90;;;;;;5063240;28;20320;-74
2021/06/01 03:13:06;;;;;;;13.82;5.78;;;11.70;99.90;;;;;;5069293;28;20439;-73
2021/06/01 03:15:31;;;;;;;12.30;7.15;;;11.60;99.90;;;;;;5048076;28;20029;-74
2021/06/01 03:17:57;;;;;;;7.97;5.60;;;11.50;99.90;;;;;;5062964;28;20070;-74
2021/06/01 03:20:22;;;;;;;14.63;5.82;;;11.50;99.90;;;;;;5062130;28;20025;-74
2021/06/01 03:22:48;;;;;;;11.98;6.20;;;11.50;99.90;;;;;;5067461;28;20386;-74
2021/06/01 03:25:14;;;;;;;9.82;5.90;;;11.50;99.90;;;;;;5060277;28;20032;-73
2021/06/01 03:27:40;;;;;;;11.80;5.75;;;11.50;99.90;;;;;;5066732;28;20132;-74
2021/06/01 03:30:08;;;;;;;9.10;6.03;;;11.60;99.90;;;;;;5058224;28;20518;-73
2021/06/01 03:32:34;;;;;;;9.65;5.80;;;11.50;99.90;;;;;;5057964;28;20033;-74
2021/06/01 03:34:59;;;;;;;9.20;5.97;;;11.60;99.90;;;;;;5065716;28;20027;-74
2021/06/01 03:37:25;;;;;;;9.02;5.57;;;11.50;99.90;;;;;;5065440;28;20046;-74
2021/06/01 03:39:50;;;;;;;10.45;5.95;;;11.60;99.90;;;;;;5066031;28;20024;-74
2021/06/01 03:42:17;;;;;;;10.18;5.45;;;11.60;99.90;;;;;;5062563;28;20016;-74
2021/06/01 03:44:42;;;;;;;8.27;5.88;;;11.60;99.90;;;;;;5060393;28;20027;-74
2021/06/01 03:47:08;;;;;;;10.35;5.88;;;11.70;99.90;;;;;;5063680;28;20036;-73
2021/06/01 03:49:34;;;;;;;10.15;5.68;;;11.70;99.90;;;;;;5063037;28;20112;-73
2021/06/01 03:52:00;;;;;;;9.70;5.47;;;11.70;99.90;;;;;;5056073;28;20105;-74
2021/06/01 03:54:26;;;;;;;8.93;5.55;;;11.70;99.90;;;;;;5054171;28;20020;-74
2021/06/01 03:56:53;;;;;;;10.90;5.30;;;11.80;99.90;;;;;;5069725;28;20035;-74
2021/06/01 03:59:18;;;;;;;8.38;5.13;;;11.80;99.90;;;;;;5052501;28;20025;-74
2021/06/01 04:01:43;;;;;;;8.95;5.72;;;11.90;99.90;;;;;;5063076;28;20043;-73
2021/06/01 04:04:09;;;;;;;8.80;5.97;;;11.90;99.90;;;;;;5056699;28;20029;-74
2021/06/01 04:06:35;;;;;;;8.07;5.80;;;11.90;99.90;;;;;;5064292;28;20041;-74
2021/06/01 04:09:00;;;;;;;7.95;5.22;;;12.00;99.90;;;;;;5062452;28;20036;-73
2021/06/01 04:11:26;;;;;;;8.65;5.75;;;12.00;99.90;;;;;;5055304;28;20029;-74
2021/06/01 04:13:52;;;;;;;8.70;5.75;;;12.10;99.90;;;;;;5062168;28;20031;-73
2021/06/01 04:16:17;;;;;;;8.45;5.50;;;12.10;99.90;;;;;;5060689;28;20425;-74
2021/06/01 04:18:43;;;;;;;8.75;5.80;;;12.10;99.90;;;;;;5063756;28;20036;-74
2021/06/01 04:21:08;;;;;;;8.27;5.90;;;12.20;99.90;;;;;;5066163;28;20021;-73
2021/06/01 04:23:34;;;;;;;13.15;6.30;;;12.20;99.90;;;;;;5058841;28;20043;-74
2021/06/01 04:25:59;;;;;;;9.90;5.60;;;12.30;99.90;;;;;;5070599;28;20390;-74
2021/06/01 04:28:25;;;;;;;10.27;6.32;;;12.30;99.90;;;;;;5064260;28;20462;-74
2021/06/01 04:30:50;;;;;;;9.25;5.78;;;12.30;99.90;;;;;;5063718;28;20024;-73
2021/06/01 04:33:16;;;;;;;11.43;6.38;;;12.40;99.90;;;;;;5066546;28;20112;-74
2021/06/01 04:35:41;;;;;;;11.27;6.10;;;12.40;99.90;;;;;;5060065;28;20479;-73
2021/06/01 04:38:07;;;;;;;9.93;5.97;;;12.50;99.90;;;;;;5072199;28;20048;-73
2021/06/01 04:40:33;;;;;;;8.35;5.35;;;12.60;99.90;;;;;;5064702;28;20035;-74
2021/06/01 04:42:58;;;;;;;10.23;6.30;;;12.70;99.90;;;;;;5064194;28;20187;-74
2021/06/01 04:45:24;;;;;;;9.57;5.68;;;12.70;99.90;;;;;;5059977;28;20044;-73
2021/06/01 04:47:50;;;;;;;8.77;6.05;;;12.80;99.90;;;;;;5064395;28;20081;-74
2021/06/01 04:50:16;;;;;;;12.13;5.95;;;12.90;99.90;;;;;;5066261;28;20056;-73
2021/06/01 04:52:42;;;;;;;8.50;5.78;;;12.90;99.90;;;;;;5064150;28;20174;-73
2021/06/01 04:55:10;;;;;;;12.48;6.18;;;13.00;99.90;;;;;;5066497;28;20119;-77
2021/06/01 04:57:36;;;;;;;9.82;5.93;;;13.10;99.90;;;;;;5061636;28;20503;-79
2021/06/01 05:00:03;;;;;;;14.10;6.13;;;13.20;99.90;;;;;;5063796;28;20040;-77
2021/06/01 05:02:28;;;;;;;10.57;5.63;;;13.30;99.90;;;;;;5066715;28;20040;-77
2021/06/01 05:04:54;;;;;;;16.08;7.93;;;13.40;99.90;;;;;;5061313;28;20032;-78
2021/06/01 05:07:19;;;;;;;16.73;6.93;;;13.50;99.90;;;;;;5063046;28;20388;-77
2021/06/01 05:09:46;;;;;;;13.68;7.10;;;13.60;99.90;;;;;;5065948;28;20502;-76
2021/06/01 05:12:11;;;;;;;15.75;7.80;;;13.80;99.90;;;;;;5054015;28;20041;-77
2021/06/01 05:14:37;;;;;;;15.40;7.22;;;13.80;99.90;;;;;;5063257;28;20563;-77
2021/06/01 05:17:02;;;;;;;17.67;7.43;;;14.00;99.90;;;;;;5060714;28;20034;-76
2021/06/01 05:19:28;;;;;;;13.30;7.07;;;14.00;99.90;;;;;;5062779;28;20387;-76
2021/06/01 05:21:53;;;;;;;12.50;7.32;;;14.10;99.90;;;;;;5060659;28;20097;-80
2021/06/01 05:24:19;;;;;;;12.93;6.80;;;14.20;99.90;;;;;;5064854;28;20031;-80
2021/06/01 05:26:47;;;;;;;13.52;7.13;;;14.20;99.90;;;;;;5066436;28;20083;-87
2021/06/01 05:29:36;;;;;;;12.05;6.97;;;14.20;99.90;;;;;;5070136;28;20055;-80
2021/06/01 05:32:33;;;;;;;12.55;7.18;;;14.30;99.90;;;;;;5054403;28;20040;-80
2021/06/01 05:35:01;;;;;;;10.30;6.43;;;14.30;99.90;;;;;;5060191;28;20024;-80
2021/06/01 05:37:28;;;;;;;12.60;7.03;;;14.40;99.90;;;;;;5065495;28;20032;-80
2021/06/01 05:39:54;;;;;;;12.20;7.05;;;14.50;99.90;;;;;;5068073;28;20031;-79
2021/06/01 05:42:20;;;;;;;12.88;6.50;;;14.50;99.90;;;;;;5056187;28;20029;-80
2021/06/01 05:44:47;;;;;;;11.02;6.85;;;14.60;99.90;;;;;;5064920;28;20024;-79
2021/06/01 05:47:16;;;;;;;12.20;7.03;;;14.60;99.90;;;;;;5058386;28;20541;-80
2021/06/01 05:49:48;;;;;;;15.15;6.85;;;14.70;99.90;;;;;;5055100;28;20036;-78
2021/06/01 05:52:13;;;;;;;11.77;6.00;;;14.80;99.90;;;;;;5056466;28;20055;-85
2021/06/01 05:54:39;;;;;;;10.95;6.30;;;14.90;99.90;;;;;;5067993;28;20481;-77
2021/06/01 05:57:05;;;;;;;10.48;6.05;;;15.00;99.90;;;;;;5065910;28;20043;-76
2021/06/01 05:59:33;;;;;;;9.38;5.85;;;15.10;99.90;;;;;;5065894;28;20019;-80
2021/06/01 06:01:58;;;;;;;11.98;6.45;;;15.10;99.90;;;;;;5051466;28;20024;-81
2021/06/01 06:04:24;;;;;;;13.57;6.10;;;15.20;99.90;;;;;;5058095;28;20024;-76
2021/06/01 06:06:49;;;;;;;15.68;6.78;;;15.20;99.90;;;;;;5053895;28;20041;-76
2021/06/01 06:09:15;;;;;;;15.20;6.50;;;15.30;99.90;;;;;;5065456;28;20047;-82
2021/06/01 06:11:47;;;;;;;16.58;7.50;;;15.30;99.90;;;;;;5073898;28;20084;-80
2021/06/01 06:14:12;;;;;;;12.90;6.57;;;15.40;99.90;;;;;;5062815;28;20059;-78
2021/06/01 06:16:46;;;;;;;12.98;6.95;;;15.40;99.90;;;;;;5060321;28;20374;-76
2021/06/01 06:19:12;;;;;;;14.68;6.90;;;15.50;99.90;;;;;;5061369;28;20625;-76
2021/06/01 06:21:38;;;;;;;14.65;6.68;;;15.60;99.90;;;;;;5061202;28;20630;-76
2021/06/01 06:24:04;;;;;;;15.00;6.68;;;15.70;99.90;;;;;;5056071;28;20059;-76
2021/06/01 06:26:30;;;;;;;13.27;6.03;;;15.80;99.90;;;;;;5064052;28;20063;-75
2021/06/01 06:28:55;;;;;;;11.38;5.90;;;15.80;99.90;;;;;;5052179;28;20048;-76
2021/06/01 06:31:21;;;;;;;10.60;5.78;;;15.90;99.90;;;;;;5054067;28;20064;-76
2021/06/01 06:33:46;;;;;;;10.75;5.68;;;15.90;99.90;;;;;;5053606;28;20036;-76
2021/06/01 06:36:12;;;;;;;8.95;5.32;;;16.00;99.90;;;;;;5059772;28;20625;-76
2021/06/01 06:38:38;;;;;;;8.38;5.43;;;16.10;99.90;;;;;;5053985;28;20024;-78
2021/06/01 06:43:30;;;;;;;12.77;5.90;;;16.30;99.90;;;;;;5067357;28;20020;-76
2021/06/01 06:45:55;;;;;;;9.20;5.32;;;16.30;99.90;;;;;;5059109;28;20025;-76
2021/06/01 06:48:21;;;;;;;9.85;5.90;;;16.40;99.90;;;;;;5069940;28;20042;-77
2021/06/01 06:50:47;;;;;;;11.18;6.03;;;16.50;99.90;;;;;;5056342;28;20498;-77
2021/06/01 06:53:12;;;;;;;10.30;5.65;;;16.60;99.90;;;;;;5061704;28;20097;-76
2021/06/01 06:55:38;;;;;;;9.93;5.35;;;16.70;99.90;;;;;;5056086;28;20096;-77
2021/06/01 06:58:03;;;;;;;12.52;6.20;;;16.80;99.90;;;;;;5069028;28;20031;-77
2021/06/01 07:00:30;;;;;;;10.80;5.47;;;16.90;99.90;;;;;;5057287;28;20021;-77
2021/06/01 07:02:56;;;;;;;10.18;5.60;;;17.10;99.90;;;;;;5055126;28;20013;-77
2021/06/01 07:05:22;;;;;;;13.27;4.75;;;17.20;99.90;;;;;;5062667;28;20043;-76
2021/06/01 07:07:51;;;;;;;7.65;5.22;;;17.30;99.90;;;;;;5067772;28;20567;-77
2021/06/01 07:10:17;;;;;;;11.27;5.25;;;17.40;99.90;;;;;;5057982;28;20025;-76
2021/06/01 07:12:43;;;;;;;10.10;5.45;;;17.60;99.90;;;;;;5060613;28;20032;-77
2021/06/01 07:15:15;;;;;;;11.13;5.22;;;17.70;99.90;;;;;;5062502;28;20036;-76
2021/06/01 07:17:45;;;;;;;10.32;4.88;;;17.80;99.40;;;;;;5061839;28;20027;-77
2021/06/01 07:20:13;;;;;;;15.10;5.40;;;17.90;99.90;;;;;;5059112;28;20025;-75
2021/06/01 07:22:39;;;;;;;11.63;5.10;;;18.00;99.60;;;;;;5061675;28;20027;-75
2021/06/01 07:25:05;;;;;;;9.98;4.93;;;18.10;98.80;;;;;;5060891;28;20032;-76
2021/06/01 07:27:31;;;;;;;11.23;5.32;;;18.10;98.00;;;;;;5062671;28;20135;-76
2021/06/01 07:29:56;;;;;;;9.20;4.85;;;18.10;96.90;;;;;;5062692;28;20108;-76
2021/06/01 07:32:22;;;;;;;9.75;4.55;;;18.10;96.20;;;;;;5074569;28;20031;-75
2021/06/01 07:34:48;;;;;;;12.32;4.32;;;18.10;94.80;;;;;;5058400;28;20078;-76
2021/06/01 07:37:15;;;;;;;10.48;4.45;;;18.00;95.00;;;;;;5078096;28;20487;-76
2021/06/01 07:39:40;;;;;;;7.10;4.15;;;18.00;94.50;;;;;;5059789;28;20133;-76
2021/06/01 07:42:07;;;;;;;7.60;4.25;;;18.10;96.00;;;;;;5055736;28;20032;-76
2021/06/01 07:44:35;;;;;;;6.03;4.03;;;18.10;92.70;;;;;;5077756;28;20028;-76
2021/06/01 07:47:00;;;;;;;6.25;4.10;;;18.20;93.70;;;;;;5059063;28;20044;-76
2021/06/01 07:49:26;;;;;;;9.30;4.03;;;18.20;93.10;;;;;;5059775;28;20021;-76
2021/06/01 07:51:52;;;;;;;8.82;4.57;;;18.20;91.80;;;;;;5056043;28;20117;-76
2021/06/01 07:54:17;;;;;;;9.73;4.40;;;18.20;91.50;;;;;;5060476;28;20113;-76
2021/06/01 07:56:43;;;;;;;10.80;4.30;;;18.20;92.60;;;;;;5064358;28;20037;-76
2021/06/01 07:59:09;;;;;;;9.40;4.30;;;18.30;91.50;;;;;;5058658;28;20499;-75
2021/06/01 08:01:34;;;;;;;8.75;4.28;;;18.40;91.80;;;;;;5053316;28;20386;-76
2021/06/01 08:04:00;;;;;;;9.90;4.05;;;18.40;92.60;;;;;;5060159;28;20029;-75
2021/06/01 08:06:29;;;;;;;7.60;4.55;;;18.50;90.70;;;;;;5067630;28;20044;-76
2021/06/01 08:08:55;;;;;;;7.10;4.03;;;18.60;90.30;;;;;;5065809;28;20383;-76
2021/06/01 08:11:21;;;;;;;7.57;3.72;;;18.60;90.00;;;;;;5066921;28;20033;-75
2021/06/01 08:13:46;;;;;;;5.90;3.70;;;18.70;90.00;;;;;;5065733;28;20029;-76
2021/06/01 08:16:12;;;;;;;7.45;4.05;;;18.80;87.60;;;;;;5064463;28;20082;-76
2021/06/01 08:18:47;;;;;;;8.52;4.47;;;18.80;88.50;;;;;;5073871;28;20024;-76
2021/06/01 08:21:16;;;;;;;9.90;4.40;;;18.90;86.40;;;;;;5062222;28;20079;-76
2021/06/01 08:23:42;;;;;;;5.63;3.83;;;18.90;85.70;;;;;;5062471;28;20112;-76
2021/06/01 08:26:08;;;;;;;4.97;4.10;;;19.00;86.80;;;;;;5064706;28;20115;-76
2021/06/01 08:28:33;;;;;;;5.03;4.03;;;19.10;84.30;;;;;;5065381;28;20028;-76
2021/06/01 08:31:00;;;;;;;9.27;4.13;;;19.10;85.20;;;;;;5066857;28;20094;-76
2021/06/01 08:33:26;;;;;;;6.40;4.10;;;19.20;86.10;;;;;;5060387;28;20126;-77
2021/06/01 08:35:51;;;;;;;5.05;3.80;;;19.30;85.80;;;;;;5062567;28;20028;-75
2021/06/01 08:38:17;;;;;;;6.07;4.30;;;19.40;83.40;;;;;;5070587;28;20501;-76
2021/06/01 08:40:52;;;;;;;5.70;4.18;;;19.40;82.40;;;;;;5081291;28;20043;-76
2021/06/01 08:43:26;;;;;;;8.18;4.30;;;19.50;84.70;;;;;;5063973;28;20051;-76
2021/06/01 08:45:54;;;;;;;6.95;4.32;;;19.60;81.30;;;;;;5062267;28;20028;-76
2021/06/01 08:48:20;;;;;;;8.40;4.22;;;19.70;82.00;;;;;;5067728;28;20093;-76
2021/06/01 08:50:48;;;;;;;9.40;4.45;;;19.70;80.90;;;;;;5062802;28;20074;-76
2021/06/01 08:53:15;;;;;;;6.93;4.03;;;19.80;79.80;;;;;;5063015;28;20028;-76
2021/06/01 08:55:41;;;;;;;4.60;3.33;;;19.90;74.90;;;;;;5057018;28;20707;-76
2021/06/01 08:58:13;;;;;;;4.75;3.97;;;20.00;73.30;;;;;;5060152;28;20028;-76
2021/06/01 09:00:38;;;;;;;5.32;3.65;;;20.10;73.00;;;;;;5061892;28;20073;-75
2021/06/01 09:03:10;;;;;;;7.80;3.53;;;20.20;72.50;;;;;;5057858;28;20554;-76
2021/06/01 09:05:38;;;;;;;5.85;3.42;;;20.30;69.40;;;;;;5054927;28;20019;-76
2021/06/01 09:08:09;;;;;;;5.82;3.35;;;20.20;70.00;;;;;;5066056;28;20406;-76
2021/06/01 09:10:53;;;;;;;4.53;3.13;;;20.30;69.90;;;;;;5070652;28;20078;-76
2021/06/01 09:21:30;;;;;;;5.40;2.70;;;20.70;64.20;;;;;;5065050;28;20063;-76
2021/06/01 09:23:59;;;;;;;4.47;3.08;;;20.80;63.90;;;;;;5075540;28;20626;-76
2021/06/01 09:26:56;;;;;;;5.13;3.28;;;20.90;68.40;;;;;;5068779;28;20576;-76
2021/06/01 09:29:24;;;;;;;3.28;2.05;;;20.90;65.30;;;;;;5060918;28;20059;-77
2021/06/01 09:32:09;;;;;;;5.47;2.30;;;21.10;58.20;;;;;;5058838;28;20040;-76
2021/06/01 09:34:37;;;;;;;4.60;2.42;;;21.20;58.60;;;;;;5066470;28;20040;-76
2021/06/01 09:37:25;;;;;;;3.28;2.50;;;21.30;58.40;;;;;;5068230;28;20517;-76
2021/06/01 09:40:11;;;;;;;2.90;2.28;;;21.50;58.40;;;;;;5063999;28;20021;-76
2021/06/01 09:42:42;;;;;;;5.00;2.65;;;21.50;57.10;;;;;;5065680;28;20020;-76
2021/06/01 09:45:09;;;;;;;3.75;2.80;;;21.60;59.00;;;;;;5065813;28;20029;-76
2021/06/01 09:47:53;;;;;;;5.68;2.72;;;21.80;59.40;;;;;;5064893;28;20057;-76
2021/06/01 09:53:03;;;;;;;4.15;2.65;;;22.10;53.40;;;;;;5069516;28;20032;-76
2021/06/01 09:58:00;;;;;;;6.30;2.70;;;22.50;55.00;;;;;;5065389;28;20025;-76
2021/06/01 10:00:30;;;;;;;4.43;2.47;;;22.60;53.80;;;;;;5058467;28;20069;-77
2021/06/01 10:03:02;;;;;;;4.03;2.97;;;22.70;52.70;;;;;;5062390;28;20016;-77
2021/06/01 10:05:30;;;;;;;3.33;2.22;;;22.80;51.80;;;;;;5067913;28;20060;-77
2021/06/01 10:07:57;;;;;;;8.38;2.85;;;22.80;52.80;;;;;;5068458;28;20043;-77
2021/06/01 10:10:29;;;;;;;3.95;2.85;;;22.90;54.10;;;;;;5063246;28;20035;-77
2021/06/01 10:12:58;;;;;;;4.80;2.13;;;22.90;52.70;;;;;;5060108;28;20029;-77
2021/06/01 10:15:27;;;;;;;4.50;2.72;;;22.80;50.40;;;;;;5073640;28;20429;-77
2021/06/01 10:17:53;;;;;;;4.43;2.45;;;22.80;50.40;;;;;;5063182;28;20028;-78
2021/06/01 10:20:24;;;;;;;5.03;2.28;;;22.80;51.30;;;;;;5062129;28;20399;-76
2021/06/01 10:22:50;;;;;;;3.85;2.67;;;22.80;51.50;;;;;;5065426;28;20024;-77
2021/06/01 10:25:17;;;;;;;6.03;2.50;;;22.80;50.00;;;;;;5061376;28;20020;-77
2021/06/01 10:27:44;;;;;;;2.63;2.00;;;22.90;52.00;;;;;;5061004;28;20136;-77
2021/06/01 10:30:11;;;;;;;3.42;2.25;;;22.90;48.80;;;;;;5060363;28;20044;-78
2021/06/01 10:32:41;;;;;;;5.45;2.53;;;22.90;48.50;;;;;;5062733;28;20384;-77
2021/06/01 10:35:10;;;;;;;3.15;2.28;;;23.00;50.00;;;;;;5061654;28;20497;-77
2021/06/01 10:43:26;;;;;;;5.88;2.75;;;23.60;51.60;;;;;;5059672;28;20035;-78
2021/06/01 10:51:30;;;;;;;3.33;2.88;;;24.00;52.30;;;;;;5061267;28;20047;-77
2021/06/01 10:54:07;;;;;;;3.67;2.72;;;24.00;51.60;;;;;;5056450;27;1204177;-77
2021/06/01 10:56:53;;;;;;;2.85;2.63;;;24.10;50.80;;;;;;5087081;28;20070;-77
2021/06/01 10:59:18;;;;;;;4.10;2.78;;;24.30;53.20;;;;;;5088390;28;20032;-78
2021/06/01 11:01:51;;;;;;;3.97;2.38;;;24.50;50.00;;;;;;5079848;28;20513;-77
2021/06/01 11:04:27;;;;;;;3.40;2.60;;;24.70;48.80;;;;;;5082367;28;20509;-77
2021/06/01 11:06:54;;;;;;;7.72;2.25;;;25.00;47.00;;;;;;5078655;28;20035;-78
2021/06/01 11:09:37;;;;;;;5.93;2.20;;;25.20;46.80;;;;;;5081302;28;20020;-77
2021/06/01 11:12:17;;;;;;;5.63;2.63;;;25.20;43.60;;;;;;5089616;28;20054;-77
2021/06/01 11:14:47;;;;;;;3.08;2.10;;;25.30;45.00;;;;;;5067364;28;20021;-77
2021/06/01 11:17:13;;;;;;;2.70;2.03;;;25.50;42.70;;;;;;5082021;28;20047;-77
2021/06/01 11:19:46;;;;;;;4.93;2.00;;;25.60;41.90;;;;;;5088280;28;20028;-77
2021/06/01 11:22:27;;;;;;;3.72;1.98;;;25.50;41.10;;;;;;5090998;28;20130;-78
2021/06/01 11:33:28;;;;;;;3.42;1.92;;;26.60;39.40;;;;;;5078757;28;20036;-77
2021/06/01 11:36:06;;;;;;;2.58;1.88;;;26.90;37.30;;;;;;5076625;28;20444;-77
2021/06/01 11:38:41;;;;;;;2.38;2.17;;;27.20;39.40;;;;;;5083053;28;20106;-77
2021/06/01 11:43:44;;;;;;;7.85;2.30;;;28.10;38.50;;;;;;5084298;28;20028;-77
2021/06/01 11:51:29;;;;;;;4.35;1.92;;;28.80;38.40;;;;;;5081809;28;20076;-77
2021/06/01 11:54:03;;;;;;;4.18;2.35;;;28.60;37.80;;;;;;5076717;28;20774;-77
2021/06/01 12:02:20;;;;;;;3.60;2.38;;;28.50;34.40;;;;;;5080909;28;20042;-77
2021/06/01 12:18:37;;;;;;;2.42;1.98;;;30.10;31.80;;;;;;5062278;28;20081;-77
2021/06/01 12:21:11;;;;;;;3.83;1.90;;;30.70;32.60;;;;;;5071159;28;20398;-78
2021/06/01 12:23:38;;;;;;;1.75;1.65;;;30.90;34.10;;;;;;5073842;28;20086;-77
2021/06/01 12:26:23;;;;;;;2.45;1.60;;;31.50;30.20;;;;;;5073135;28;20398;-77
2021/06/01 12:31:55;;;;;;;1.92;1.55;;;31.90;31.40;;;;;;5062200;28;20039;-77
2021/06/01 12:34:31;;;;;;;5.10;1.75;;;32.30;30.80;;;;;;5056984;28;20028;-78
2021/06/01 13:05:26;;;;;;;1.80;1.70;;;32.40;29.60;;;;;;5072986;28;20059;-77
2021/06/01 13:21:45;;;;;;;1.40;1.30;;;33.90;28.10;;;;;;5069986;28;20035;-76
2021/06/01 13:24:30;;;;;;;8.88;1.63;;;34.20;27.40;;;;;;5062857;28;20029;-76
2021/06/01 13:32:44;;;;;;;2.28;1.55;;;33.40;25.70;;;;;;5074132;28;20032;-76
2021/06/01 13:38:17;;;;;;;1.02;0.98;;;33.00;27.00;;;;;;5056967;28;20035;-76
2021/06/01 13:45:58;;;;;;;10.82;2.17;;;32.80;25.80;;;;;;5061082;28;20684;-76
2021/06/01 13:46:31;;;;;;;5.88;1.00;;;32.70;26.60;;;;;;5061904;28;20042;-82
2021/06/01 13:49:12;;;;;;;1.67;1.02;;;32.50;26.70;;;;;;5069218;28;20032;-85
2021/06/01 13:57:03;;;;;;;1.40;1.30;;;31.30;27.50;;;;;;5056951;28;20032;-82
2021/06/01 13:59:39;;;;;;;1.23;1.10;;;31.80;27.60;;;;;;5051255;28;20020;-84
2021/06/01 14:10:21;;;;;;;3.03;1.52;;;31.50;28.60;;;;;;5061168;28;20509;-84
2021/06/01 14:21:20;;;;;;;1.27;1.10;;;28.40;31.20;;;;;;5070205;28;20037;-81
2021/06/01 14:29:48;;;;;;;1.25;1.15;;;27.40;34.30;;;;;;5063136;28;20040;-85
2021/06/01 14:37:52;;;;;;;5.20;1.50;;;27.50;36.40;;;;;;5065101;28;20115;-80
2021/06/01 15:07:34;;;;;;;2.58;1.30;;;27.20;35.00;;;;;;5062713;28;20932;-82
2021/06/01 15:22:47;;;;;;;1.42;1.33;;;26.80;36.50;;;;;;5059220;28;20035;-81
2021/06/01 15:32:16;;;;;;;1.98;1.50;;;26.10;38.50;;;;;;5061057;28;20040;-83
2021/06/01 17:05:03;;;;;;;3.25;2.70;;;22.80;56.00;;;;;;5065977;28;20112;-86
2021/06/01 17:07:51;;;;;;;4.72;2.95;;;23.10;55.50;;;;;;5066550;28;20078;-86
2021/06/01 17:11:02;;;;;;;2.80;2.38;;;23.20;55.30;;;;;;5067731;28;20056;-87
2021/06/01 17:13:08;;;;;;;8.02;2.55;;;23.30;54.70;;;;;;5067286;28;20033;-87
2021/06/01 17:15:37;;;;;;;7.65;3.45;;;23.20;55.50;;;;;;5069093;28;20024;-86
2021/06/01 17:18:15;;;;;;;6.63;2.90;;;23.00;56.40;;;;;;5069845;28;20036;-85
2021/06/01 17:21:11;;;;;;;6.38;2.67;;;22.80;57.10;;;;;;5070178;28;20024;-86
2021/06/01 17:23:51;;;;;;;3.85;2.63;;;22.40;56.50;;;;;;5065715;28;20043;-86
2021/06/01 17:37:23;;;;;;;7.07;4.15;;;21.80;62.50;;;;;;5061873;28;20033;-85
2021/06/01 17:39:49;;;;;;;11.95;4.43;;;21.60;65.00;;;;;;5065972;28;20020;-87
2021/06/01 17:42:20;;;;;;;6.35;4.03;;;21.50;66.00;;;;;;5070034;28;20043;-86
2021/06/01 17:44:48;;;;;;;7.50;4.22;;;21.60;67.20;;;;;;5067473;28;20039;-86
2021/06/01 17:47:18;;;;;;;9.18;4.97;;;21.50;68.90;;;;;;5067253;28;20082;-87
2021/06/01 17:49:50;;;;;;;6.45;4.18;;;21.60;68.70;;;;;;5067419;28;20217;-87
2021/06/01 17:52:27;;;;;;;7.97;3.85;;;21.50;70.30;;;;;;5068622;28;20036;-87
2021/06/01 17:54:55;;;;;;;3.95;2.90;;;21.40;69.50;;;;;;5066912;28;20544;-85
2021/06/01 17:57:22;;;;;;;4.38;3.00;;;21.20;68.00;;;;;;5065733;28;20081;-88